Time;durP1;ratioP1;P1;durP2;ratioP2;P2;SDS_P1;SDS_P2;PMS_P1;PMS_P2;Temp;Humidity;BMP_temperature;BMP_pressure;BME280_temperature;BME280_humidity;BME280_pressure;Samples;Min_cycle;Max_cycle;Signal;HPM_P1;HPM_P2
2022/11/06 00:01:11;;;;;;;3.38;2.60;;;;;;;20.03;46.94;101270.06;5090452;28;20043;-64
2022/11/06 00:03:37;;;;;;;3.72;2.40;;;;;;;19.99;47.05;101268.75;5089641;28;20545;-64
2022/11/06 00:08:54;;;;;;;3.30;2.40;;;;;;;19.90;47.16;101260.00;5086120;28;20046;-64
2022/11/06 00:11:20;;;;;;;2.58;2.30;;;;;;;19.96;47.09;101269.09;5093042;28;20031;-64
2022/11/06 00:13:51;;;;;;;3.05;2.38;;;;;;;19.97;46.95;101268.94;5095950;28;20393;-64
2022/11/06 00:16:17;;;;;;;3.58;2.40;;;;;;;19.94;47.11;101268.44;5095100;28;20152;-64
2022/11/06 00:18:42;;;;;;;2.78;2.10;;;;;;;19.88;47.14;101254.91;5091856;28;20032;-64
2022/11/06 00:21:13;;;;;;;2.63;2.33;;;;;;;19.96;47.16;101255.88;5085965;28;20463;-64
2022/11/06 00:23:40;;;;;;;4.43;2.28;;;;;;;19.95;47.20;101264.81;5092177;28;20065;-64
2022/11/06 00:26:11;;;;;;;3.40;2.33;;;;;;;19.85;47.45;101254.41;5094426;28;20085;-64
2022/11/06 00:28:36;;;;;;;3.70;2.42;;;;;;;19.90;47.18;101252.91;5093117;28;20071;-64
2022/11/06 00:31:04;;;;;;;3.13;2.50;;;;;;;19.92;47.09;101248.28;5092599;28;20669;-64
2022/11/06 00:33:30;;;;;;;3.83;2.67;;;;;;;19.95;47.07;101255.06;5090910;28;20035;-64
2022/11/06 00:35:55;;;;;;;4.70;2.75;;;;;;;19.82;47.53;101257.41;5091501;28;20030;-64
2022/11/06 00:38:21;;;;;;;4.30;2.55;;;;;;;19.92;47.12;101265.94;5094316;28;20096;-64
2022/11/06 00:40:46;;;;;;;4.88;2.63;;;;;;;19.88;47.33;101254.06;5090154;28;20040;-64
2022/11/06 00:43:12;;;;;;;3.45;2.30;;;;;;;19.97;47.16;101255.72;5090406;28;20031;-64
2022/11/06 00:45:37;;;;;;;3.35;2.22;;;;;;;20.02;47.01;101247.25;5090501;28;20039;-64
2022/11/06 00:48:03;;;;;;;3.15;2.20;;;;;;;20.02;46.95;101257.84;5090667;28;20082;-64
2022/11/06 00:50:29;;;;;;;2.55;2.35;;;;;;;19.88;47.30;101259.38;5090219;28;20518;-64
2022/11/06 00:52:54;;;;;;;3.50;2.50;;;;;;;19.98;46.92;101259.19;5090383;28;20517;-64
2022/11/06 00:55:20;;;;;;;2.92;2.33;;;;;;;19.90;47.21;101252.09;5090646;28;20055;-64
2022/11/06 00:57:46;;;;;;;2.97;2.15;;;;;;;20.06;46.77;101256.50;5088799;28;20055;-64
2022/11/06 01:00:12;;;;;;;3.80;2.55;;;;;;;19.97;47.14;101252.25;5093008;28;20763;-64
2022/11/06 01:02:38;;;;;;;4.07;2.35;;;;;;;19.99;47.06;101250.25;5085785;28;20070;-64
2022/11/06 01:05:04;;;;;;;3.95;2.35;;;;;;;19.99;47.07;101250.25;5085411;28;20071;-64
2022/11/06 01:07:29;;;;;;;4.60;2.20;;;;;;;19.85;47.37;101238.56;5084101;28;20039;-64
2022/11/06 01:09:56;;;;;;;4.13;2.50;;;;;;;19.97;47.07;101245.13;5087472;28;20048;-64
2022/11/06 01:12:21;;;;;;;5.30;2.47;;;;;;;19.99;47.12;101245.78;5087172;28;20065;-64
2022/11/06 01:14:46;;;;;;;3.55;2.58;;;;;;;20.04;47.09;101248.75;5095191;28;20035;-64
2022/11/06 01:17:12;;;;;;;2.58;2.38;;;;;;;20.05;46.85;101253.03;5086960;28;21104;-64
2022/11/06 01:19:38;;;;;;;3.53;2.38;;;;;;;19.95;47.08;101249.78;5090708;28;20035;-64
2022/11/06 01:22:03;;;;;;;4.13;2.42;;;;;;;19.98;47.11;101249.44;5089234;28;20061;-64
2022/11/06 01:24:29;;;;;;;2.72;2.30;;;;;;;19.91;47.24;101241.34;5090489;28;20077;-64
2022/11/06 01:26:55;;;;;;;2.40;2.20;;;;;;;19.94;47.29;101247.31;5090637;28;20542;-64
2022/11/06 01:29:20;;;;;;;3.75;2.28;;;;;;;20.02;46.93;101236.69;5087172;28;20047;-64
2022/11/06 01:31:49;;;;;;;5.18;2.50;;;;;;;19.98;47.05;101227.47;5089663;28;20058;-64
2022/11/06 01:34:15;;;;;;;3.17;2.30;;;;;;;19.95;47.30;101217.25;5088759;28;20431;-64
2022/11/06 01:36:41;;;;;;;2.67;2.42;;;;;;;19.96;47.11;101217.06;5091751;28;20056;-64
2022/11/06 01:39:12;;;;;;;4.25;2.80;;;;;;;19.90;47.33;101228.28;5089606;28;20039;-64
2022/11/06 01:41:41;;;;;;;3.55;2.65;;;;;;;19.95;47.13;101226.00;5093651;28;20085;-64
2022/11/06 01:44:13;;;;;;;2.50;2.28;;;;;;;20.00;47.10;101221.00;5082848;28;20039;-64
2022/11/06 01:46:39;;;;;;;2.53;2.22;;;;;;;19.98;47.19;101224.81;5088427;28;20038;-64
2022/11/06 01:49:13;;;;;;;3.53;2.30;;;;;;;19.98;47.20;101224.81;5092708;28;20492;-64
2022/11/06 01:52:07;;;;;;;2.75;2.30;;;;;;;20.00;47.09;101222.81;5090723;28;20031;-64
2022/11/06 01:54:35;;;;;;;3.97;2.90;;;;;;;19.99;46.99;101202.69;5089003;28;21251;-64
2022/11/06 01:57:03;;;;;;;3.75;2.60;;;;;;;19.92;47.28;101208.63;5088995;28;20052;-64
2022/11/06 01:59:34;;;;;;;2.40;2.20;;;;;;;19.95;47.25;101211.94;5089596;28;20059;-64
2022/11/06 02:02:00;;;;;;;3.22;2.47;;;;;;;20.03;46.95;101202.16;5088630;28;20145;-64
2022/11/06 02:04:30;;;;;;;3.35;2.65;;;;;;;19.95;47.14;101206.66;5086317;28;20032;-64
2022/11/06 02:06:58;;;;;;;3.42;2.20;;;;;;;19.96;47.21;101195.91;5091304;28;20544;-64
2022/11/06 02:09:24;;;;;;;2.50;2.17;;;;;;;19.96;47.15;101209.13;5091655;28;21177;-64
2022/11/06 02:11:57;;;;;;;4.45;2.60;;;;;;;20.06;46.91;101188.59;5090338;28;20067;-64
2022/11/06 02:14:26;;;;;;;4.38;2.45;;;;;;;20.06;46.94;101193.88;5089499;28;20544;-64
2022/11/06 02:16:56;;;;;;;4.32;2.40;;;;;;;19.98;47.04;101180.72;5087707;28;20127;-64
2022/11/06 02:19:39;;;;;;;;;;;;;;;19.98;47.08;101179.88;5094645;28;20078;-64
2022/11/06 02:22:08;;;;;;;2.97;2.40;;;;;;;20.05;46.91;101184.28;5089453;28;19920;-64
2022/11/06 02:25:05;;;;;;;3.35;2.60;;;;;;;19.99;47.17;101177.06;5087764;28;20032;-64
2022/11/06 02:27:32;;;;;;;3.70;2.80;;;;;;;19.92;47.28;101184.84;5086359;28;20370;-64
2022/11/06 02:30:04;;;;;;;4.30;2.78;;;;;;;19.94;47.23;101175.94;5094278;28;20040;-64
2022/11/06 02:32:43;;;;;;;5.03;2.72;;;;;;;19.92;47.36;101179.56;5092616;28;20031;-64
2022/11/06 02:35:23;;;;;;;3.60;2.92;;;;;;;19.99;47.07;101171.78;5089896;28;20039;-64
2022/11/06 02:37:54;;;;;;;3.88;2.60;;;;;;;20.02;46.97;101174.06;5093096;28;20028;-64
2022/11/06 02:40:26;;;;;;;2.92;2.30;;;;;;;20.00;47.03;101181.34;5089331;28;20035;-64
2022/11/06 02:42:55;;;;;;;3.00;2.30;;;;;;;19.96;47.14;101180.06;5086335;28;20043;-64
2022/11/06 02:45:22;;;;;;;2.47;2.22;;;;;;;19.88;47.43;101170.31;5091956;28;20401;-64
2022/11/06 02:47:53;;;;;;;5.90;2.83;;;;;;;19.88;47.34;101172.97;5085093;28;20127;-64
2022/11/06 02:50:25;;;;;;;3.20;2.42;;;;;;;19.94;47.26;101173.31;5083256;28;20040;-64
2022/11/06 02:53:04;;;;;;;3.65;2.58;;;;;;;20.02;47.13;101174.06;5091449;28;20043;-64
2022/11/06 02:55:39;;;;;;;3.58;2.47;;;;;;;19.92;47.27;101171.63;5089281;28;20047;-64
2022/11/06 02:58:18;;;;;;;2.85;2.45;;;;;;;19.96;47.33;101166.03;5099928;28;20019;-64
2022/11/06 03:00:51;;;;;;;2.50;2.30;;;;;;;19.90;47.41;101170.16;5093492;28;20039;-64
2022/11/06 03:03:23;;;;;;;3.05;2.45;;;;;;;19.94;47.26;101163.53;5094828;28;20046;-64
2022/11/06 03:06:06;;;;;;;3.53;2.55;;;;;;;19.97;47.22;101165.03;5092994;28;20131;-64
2022/11/06 03:08:46;;;;;;;4.40;2.47;;;;;;;19.98;47.29;101159.56;5095637;28;20040;-64
2022/11/06 03:11:21;;;;;;;3.95;2.70;;;;;;;19.94;47.29;101163.53;5090537;28;20050;-64
2022/11/06 03:13:57;;;;;;;2.60;2.40;;;;;;;19.92;47.31;101158.41;5095278;28;20063;-64
2022/11/06 03:16:27;;;;;;;3.30;2.33;;;;;;;19.92;47.32;101158.41;5089620;28;20365;-64
2022/11/06 03:19:02;;;;;;;3.42;2.50;;;;;;;19.98;47.19;101161.38;5097862;28;20047;-64
2022/11/06 03:21:42;;;;;;;4.32;2.58;;;;;;;19.96;47.25;101161.56;5089182;28;20059;-64
2022/11/06 03:24:16;;;;;;;3.53;2.47;;;;;;;19.97;47.26;101168.50;5089254;28;20044;-64
2022/11/06 03:26:49;;;;;;;3.72;2.70;;;;;;;19.94;47.13;101144.22;5095487;28;20508;-64
2022/11/06 03:29:20;;;;;;;4.63;2.47;;;;;;;20.00;47.12;101157.56;5090434;28;20032;-64
2022/11/06 03:32:07;;;;;;;3.08;2.55;;;;;;;19.98;47.17;101148.16;5092301;28;20070;-64
2022/11/06 03:34:41;;;;;;;4.00;2.70;;;;;;;20.05;46.98;101155.22;5097710;28;20611;-64
2022/11/06 03:37:18;;;;;;;2.75;2.20;;;;;;;19.94;47.21;101152.97;5088727;28;20028;-64
2022/11/06 03:39:57;;;;;;;3.20;2.50;;;;;;;19.95;47.22;101161.72;5089411;28;20032;-64
2022/11/06 03:42:26;;;;;;;5.00;2.58;;;;;;;19.87;47.41;101155.47;5090206;28;20035;-64
2022/11/06 03:44:56;;;;;;;4.10;2.47;;;;;;;19.99;47.08;101147.16;5086814;28;21564;-64
2022/11/06 03:47:28;;;;;;;2.83;2.50;;;;;;;19.95;47.33;101151.97;5095273;28;20370;-64
2022/11/06 03:50:01;;;;;;;3.45;2.25;;;;;;;19.99;47.21;101161.22;5088182;28;20593;-64
2022/11/06 03:52:38;;;;;;;2.83;2.53;;;;;;;19.97;47.23;101151.81;5094522;28;20166;-64
2022/11/06 03:55:10;;;;;;;2.80;2.50;;;;;;;19.97;47.21;101151.81;5094080;28;20105;-64
2022/11/06 03:57:41;;;;;;;2.92;2.53;;;;;;;20.01;47.11;101161.84;5098003;28;20036;-64
2022/11/06 04:00:08;;;;;;;3.10;2.33;;;;;;;20.01;47.05;101150.44;5093271;28;20031;-64
2022/11/06 04:02:41;;;;;;;3.15;2.55;;;;;;;19.91;47.21;101151.47;5088011;28;20036;-64
2022/11/06 04:05:39;;;;;;;3.20;2.30;;;;;;;19.95;47.30;101167.00;5088972;28;20036;-64
2022/11/06 04:14:03;;;;;;;5.32;2.58;;;;;;;19.98;47.21;101162.19;5090335;28;20118;-64
2022/11/06 04:16:42;;;;;;;4.25;2.40;;;;;;;19.95;47.05;101165.19;5091583;28;20449;-64
2022/11/06 04:19:26;;;;;;;2.70;2.37;;;;;;;19.92;47.39;101168.97;5093882;28;20050;-64
2022/11/06 04:21:57;;;;;;;3.17;2.30;;;;;;;19.96;47.28;101158.09;5087421;28;20483;-64
2022/11/06 04:27:26;;;;;;;2.55;2.25;;;;;;;19.93;47.30;101164.53;5092292;28;20125;-64
2022/11/06 04:30:05;;;;;;;2.30;2.08;;;;;;;19.96;47.27;101158.91;5091931;28;20051;-64
2022/11/06 04:32:36;;;;;;;3.58;2.40;;;;;;;19.91;47.25;101164.69;5090492;28;20123;-64
2022/11/06 04:35:26;;;;;;;3.35;2.30;;;;;;;19.99;47.10;101163.84;5089398;28;20396;-64
2022/11/06 04:38:06;;;;;;;2.50;2.28;;;;;;;19.91;47.21;101159.41;5089995;28;20043;-64
2022/11/06 04:40:35;;;;;;;2.78;2.50;;;;;;;19.92;47.30;101155.75;5093408;28;20033;-64
2022/11/06 04:43:06;;;;;;;3.15;2.33;;;;;;;20.03;47.09;101164.31;5086999;28;20886;-64
2022/11/06 04:45:38;;;;;;;5.22;2.40;;;;;;;19.81;47.54;101156.16;5093293;28;20035;-64
2022/11/06 04:48:05;;;;;;;2.85;2.17;;;;;;;19.85;47.45;101162.75;5092900;28;20032;-64
2022/11/06 04:50:35;;;;;;;4.15;2.45;;;;;;;19.96;47.14;101158.91;5089583;28;20035;-64
2022/11/06 04:53:03;;;;;;;2.47;2.20;;;;;;;19.94;47.14;101168.00;5088252;28;20123;-64
2022/11/06 04:55:29;;;;;;;2.47;2.10;;;;;;;19.92;47.16;101165.50;5088596;28;20130;-64
2022/11/06 04:57:55;;;;;;;2.55;2.08;;;;;;;19.95;47.33;101162.56;5076311;28;20892;-64
2022/11/06 05:00:20;;;;;;;3.30;2.45;;;;;;;20.02;47.04;101170.59;5089168;28;20040;-64
2022/11/06 05:02:46;;;;;;;2.95;2.25;;;;;;;19.92;47.26;101162.88;5089314;28;20044;-63
2022/11/06 05:05:11;;;;;;;3.67;2.30;;;;;;;19.91;47.38;101161.22;5093178;28;20610;-64
2022/11/06 05:07:37;;;;;;;3.45;2.60;;;;;;;19.90;47.32;101159.56;5087317;28;20074;-64
2022/11/06 05:10:03;;;;;;;3.22;2.33;;;;;;;19.98;47.09;101161.38;5085104;28;20191;-64
2022/11/06 05:12:29;;;;;;;2.38;2.00;;;;;;;19.89;47.54;101142.06;5088940;28;20047;-64
2022/11/06 05:14:54;;;;;;;3.65;2.47;;;;;;;19.87;47.44;101146.72;5091010;28;20032;-64
2022/11/06 05:17:20;;;;;;;3.58;2.50;;;;;;;19.94;47.26;101149.50;5086828;28;20040;-64
2022/11/06 05:19:45;;;;;;;3.13;2.25;;;;;;;19.97;47.15;101135.94;5086599;28;20048;-64
2022/11/06 05:24:55;;;;;;;3.97;2.58;;;;;;;19.85;47.40;101119.63;5087865;28;20125;-64
2022/11/06 05:27:20;;;;;;;3.03;2.30;;;;;;;19.95;47.18;101116.78;5086842;28;20486;-64
2022/11/06 05:29:46;;;;;;;3.47;2.30;;;;;;;19.95;47.28;101122.09;5092918;28;20195;-64
2022/11/06 05:32:11;;;;;;;2.70;2.05;;;;;;;19.85;47.43;101120.47;5088097;28;20059;-64
2022/11/06 05:34:37;;;;;;;4.82;2.20;;;;;;;19.88;47.42;101120.09;5090476;28;20043;-64
2022/11/06 05:37:02;;;;;;;2.80;2.28;;;;;;;19.85;47.39;101109.88;5096274;28;20163;-64
2022/11/06 05:39:28;;;;;;;3.03;2.20;;;;;;;19.88;47.37;101109.53;5084259;28;20469;-64
2022/11/06 05:41:53;;;;;;;2.47;2.17;;;;;;;19.95;47.26;101112.34;5089943;28;20044;-64
2022/11/06 05:44:19;;;;;;;2.63;2.30;;;;;;;19.90;47.28;101110.19;5087365;28;20036;-64
2022/11/06 05:46:44;;;;;;;3.25;2.20;;;;;;;19.87;47.31;101102.59;5088367;28;20031;-64
2022/11/06 05:49:10;;;;;;;3.83;2.13;;;;;;;19.87;47.38;101091.22;5088852;28;20366;-64
2022/11/06 05:51:36;;;;;;;3.03;2.20;;;;;;;19.90;47.35;101093.50;5080848;28;20047;-64
2022/11/06 05:54:01;;;;;;;3.72;2.30;;;;;;;19.89;47.12;101094.50;5091827;28;20903;-64
2022/11/06 05:56:26;;;;;;;3.58;2.45;;;;;;;19.94;47.40;101094.00;5093199;28;20100;-64
2022/11/06 05:58:52;;;;;;;2.53;2.33;;;;;;;19.92;47.17;101096.78;5092045;28;20044;-64
2022/11/06 06:01:18;;;;;;;2.20;2.00;;;;;;;19.90;47.39;101089.03;5091033;28;20069;-64
2022/11/06 06:03:43;;;;;;;2.75;2.15;;;;;;;19.92;47.35;101087.03;5086863;28;20050;-64
2022/11/06 06:06:09;;;;;;;2.53;2.20;;;;;;;20.05;47.00;101081.19;5090577;28;20042;-63
2022/11/06 06:08:34;;;;;;;2.63;2.10;;;;;;;19.84;47.42;101091.56;5091739;28;20572;-65
2022/11/06 06:11:04;;;;;;;4.32;2.40;;;;;;;19.92;47.31;101094.16;5090511;28;20121;-64
2022/11/06 06:13:29;;;;;;;2.42;2.22;;;;;;;19.86;47.50;101097.50;5088366;28;20043;-64
2022/11/06 06:16:00;;;;;;;3.85;2.15;;;;;;;19.87;47.39;101092.03;5090878;28;20036;-64
2022/11/06 06:18:25;;;;;;;2.72;1.90;;;;;;;19.90;47.24;101093.50;5089454;28;20048;-64
2022/11/06 06:20:51;;;;;;;2.88;2.42;;;;;;;19.88;47.26;101100.78;5093862;28;20059;-64
2022/11/06 06:23:16;;;;;;;3.50;2.28;;;;;;;19.91;47.32;101095.16;5086354;28;21817;-64
2022/11/06 06:25:42;;;;;;;2.42;2.20;;;;;;;19.85;46.91;101094.03;5094482;28;20044;-64
2022/11/06 06:28:07;;;;;;;2.70;2.10;;;;;;;19.90;47.32;101096.97;5087278;28;20044;-64
2022/11/06 06:30:34;;;;;;;2.10;1.90;;;;;;;19.79;47.44;101094.72;5100329;28;20023;-64
2022/11/06 06:33:04;;;;;;;3.58;2.40;;;;;;;19.85;47.40;101090.56;5087751;28;20045;-64
2022/11/06 06:35:29;;;;;;;5.40;2.15;;;;;;;19.86;47.35;101089.56;5093629;28;20035;-64
2022/11/06 06:37:55;;;;;;;2.60;2.25;;;;;;;19.90;47.30;101088.22;5086897;28;20067;-63
2022/11/06 06:40:21;;;;;;;2.83;2.20;;;;;;;19.85;47.39;101094.03;5093262;28;20066;-64
2022/11/06 06:42:47;;;;;;;3.17;2.30;;;;;;;19.88;47.25;101082.28;5098084;28;20524;-64
2022/11/06 06:45:13;;;;;;;2.10;1.90;;;;;;;19.94;47.23;101091.38;5097610;28;20059;-64
2022/11/06 06:47:39;;;;;;;3.67;2.08;;;;;;;19.92;47.20;101087.03;5088116;28;20209;-64
2022/11/06 06:50:05;;;;;;;2.97;2.33;;;;;;;19.90;47.17;101073.19;5092825;28;20032;-64
2022/11/06 06:52:31;;;;;;;2.20;2.00;;;;;;;19.86;47.36;101079.00;5091627;28;20047;-64
2022/11/06 06:54:56;;;;;;;2.25;2.00;;;;;;;19.88;47.31;101087.56;5093886;28;20116;-64
2022/11/06 06:57:22;;;;;;;2.15;1.95;;;;;;;19.91;47.24;101082.75;5087214;28;20165;-64
2022/11/06 06:59:47;;;;;;;2.28;2.00;;;;;;;19.82;47.48;101089.09;5092018;28;20035;-64
2022/11/06 07:02:13;;;;;;;4.10;2.10;;;;;;;19.87;47.35;101089.41;5087670;28;20035;-64
2022/11/06 07:04:38;;;;;;;2.38;2.03;;;;;;;19.91;47.17;101095.16;5095458;28;20733;-64
2022/11/06 07:07:04;;;;;;;2.72;2.08;;;;;;;19.86;47.36;101102.78;5094034;28;20171;-64
2022/11/06 07:09:30;;;;;;;3.42;2.13;;;;;;;19.91;47.19;101097.78;5088468;28;20113;-64
2022/11/06 07:11:56;;;;;;;2.10;1.90;;;;;;;19.91;47.15;101090.69;5092880;28;20075;-64
2022/11/06 07:14:22;;;;;;;2.28;2.08;;;;;;;19.81;47.41;101098.03;5091217;28;20050;-64
2022/11/06 07:16:47;;;;;;;2.17;1.95;;;;;;;19.87;47.67;101096.50;5097923;28;20374;-64
2022/11/06 07:19:13;;;;;;;2.25;2.05;;;;;;;19.80;47.48;101095.56;5090052;28;20115;-64
2022/11/06 07:21:38;;;;;;;3.33;2.30;;;;;;;19.83;47.15;101096.03;5096691;28;20043;-64
2022/11/06 07:24:04;;;;;;;2.47;2.15;;;;;;;19.90;47.34;101096.97;5091277;28;20064;-64
2022/11/06 07:26:29;;;;;;;6.78;2.45;;;;;;;19.82;47.38;101093.56;5092795;28;20032;-64
2022/11/06 07:28:55;;;;;;;3.15;2.10;;;;;;;19.84;47.33;101096.84;5087900;28;20040;-64
2022/11/06 07:31:20;;;;;;;3.28;2.10;;;;;;;19.79;47.45;101091.28;5088712;28;20039;-64
2022/11/06 07:33:46;;;;;;;3.25;2.03;;;;;;;19.87;47.30;101101.78;5086949;28;20069;-64
2022/11/06 07:36:12;;;;;;;3.15;1.98;;;;;;;19.90;47.35;101088.22;5090488;28;20040;-64
2022/11/06 07:38:40;;;;;;;2.80;2.10;;;;;;;19.83;47.53;101085.47;5092119;28;20034;-64
2022/11/06 07:41:11;;;;;;;4.00;2.45;;;;;;;19.91;47.32;101081.94;5092031;28;20150;-64
2022/11/06 07:43:37;;;;;;;2.70;2.30;;;;;;;19.86;47.32;101086.94;5088108;28;20136;-64
2022/11/06 07:46:06;;;;;;;2.50;2.10;;;;;;;19.92;47.26;101079.13;5091740;28;20028;-64
2022/11/06 07:48:32;;;;;;;2.22;1.73;;;;;;;19.90;47.19;101075.81;5092074;28;20880;-64
2022/11/06 07:51:01;;;;;;;1.90;1.70;;;;;;;19.95;47.16;101064.75;5089906;28;20028;-64
2022/11/06 07:53:26;;;;;;;2.72;1.85;;;;;;;19.98;47.08;101076.78;5085288;28;20081;-63
2022/11/06 07:55:54;;;;;;;2.83;2.10;;;;;;;19.84;47.64;101078.34;5086924;28;22304;-64
2022/11/06 07:58:21;;;;;;;2.78;1.98;;;;;;;19.88;47.11;101074.34;5090904;28;21967;-63
2022/11/06 08:00:48;;;;;;;4.78;1.95;;;;;;;19.81;47.50;101090.09;5091998;28;20074;-63
2022/11/06 08:03:14;;;;;;;2.08;1.85;;;;;;;19.83;47.53;101089.91;5091406;28;20035;-63
2022/11/06 08:05:39;;;;;;;1.85;1.67;;;;;;;19.83;47.49;101082.81;5093375;28;20036;-63
2022/11/06 08:08:05;;;;;;;3.30;1.80;;;;;;;19.83;47.52;101089.91;5090501;28;20043;-64
2022/11/06 08:10:30;;;;;;;1.90;1.70;;;;;;;19.82;47.51;101080.34;5094677;28;20039;-63
2022/11/06 08:12:59;;;;;;;2.42;1.83;;;;;;;19.77;47.65;101074.78;5090281;28;20043;-63
2022/11/06 08:15:24;;;;;;;3.22;1.90;;;;;;;19.87;47.39;101072.72;5099627;28;20040;-63
2022/11/06 08:17:50;;;;;;;2.88;1.98;;;;;;;19.79;47.59;101068.31;5090877;28;20040;-63
2022/11/06 08:20:15;;;;;;;2.75;2.20;;;;;;;19.79;47.70;101059.56;5090951;28;20055;-64
2022/11/06 08:22:41;;;;;;;3.47;2.20;;;;;;;19.80;47.51;101055.91;5095285;28;20178;-64
2022/11/06 08:25:07;;;;;;;2.80;2.17;;;;;;;19.76;47.54;101063.38;5094847;28;20051;-64
2022/11/06 08:27:32;;;;;;;1.83;1.70;;;;;;;19.81;47.58;101062.84;5090868;28;20032;-63
2022/11/06 08:29:58;;;;;;;3.47;1.92;;;;;;;19.82;47.57;101064.50;5091058;28;20809;-63
2022/11/06 08:32:23;;;;;;;3.03;1.80;;;;;;;19.84;47.45;101063.31;5095678;28;20047;-64
2022/11/06 08:34:49;;;;;;;2.33;1.65;;;;;;;19.85;47.43;101058.84;5088678;28;20409;-63
2022/11/06 08:37:14;;;;;;;3.15;2.15;;;;;;;19.85;47.47;101059.69;5091042;28;20442;-63
2022/11/06 08:39:40;;;;;;;2.83;1.85;;;;;;;19.83;47.52;101061.66;5091148;28;20047;-63
2022/11/06 08:42:06;;;;;;;2.33;1.90;;;;;;;19.83;47.42;101060.84;5095873;28;20043;-64
2022/11/06 08:44:31;;;;;;;4.78;2.20;;;;;;;19.81;47.57;101050.47;5088412;28;20505;-64
2022/11/06 08:46:57;;;;;;;4.25;2.28;;;;;;;19.83;47.24;101052.94;5100134;28;20040;-64
2022/11/06 08:49:22;;;;;;;2.45;1.60;;;;;;;19.88;47.41;101051.41;5089261;28;20036;-63
2022/11/06 08:51:47;;;;;;;2.33;2.08;;;;;;;19.76;47.60;101046.69;5093258;28;20040;-64
2022/11/06 08:54:13;;;;;;;3.38;2.17;;;;;;;19.77;47.68;101043.06;5094931;28;20048;-63
2022/11/06 08:56:39;;;;;;;2.90;1.90;;;;;;;19.85;47.44;101058.84;5090229;28;20107;-63
2022/11/06 08:59:04;;;;;;;1.88;1.77;;;;;;;19.80;47.50;101050.63;5088928;28;20035;-64
2022/11/06 09:01:30;;;;;;;3.88;2.00;;;;;;;19.92;47.21;101051.88;5097023;28;20752;-63
2022/11/06 09:03:56;;;;;;;2.90;2.00;;;;;;;19.91;47.31;101055.50;5090290;28;20051;-64
2022/11/06 09:06:21;;;;;;;2.25;1.70;;;;;;;19.81;47.51;101047.81;5090284;28;20183;-63
2022/11/06 09:08:47;;;;;;;2.33;1.70;;;;;;;19.91;47.26;101050.22;5094784;28;20042;-63
2022/11/06 09:11:12;;;;;;;5.88;2.15;;;;;;;19.87;47.42;101036.53;5089458;28;20423;-64
2022/11/06 09:13:38;;;;;;;2.40;1.70;;;;;;;19.83;47.46;101029.13;5095208;28;20031;-63
2022/11/06 09:16:05;;;;;;;1.77;1.55;;;;;;;19.86;47.37;101021.69;5092218;28;20070;-63
2022/11/06 09:18:30;;;;;;;2.60;2.10;;;;;;;19.81;47.38;101017.94;5086563;28;20044;-64
2022/11/06 09:20:56;;;;;;;2.13;1.73;;;;;;;19.85;47.30;101012.09;5088706;28;20044;-63
2022/11/06 09:23:23;;;;;;;2.95;2.10;;;;;;;19.84;47.62;101007.81;5075228;28;20036;-63
2022/11/06 09:25:48;;;;;;;4.05;1.80;;;;;;;19.90;47.28;101003.66;5081569;28;20409;-63
2022/11/06 09:28:14;;;;;;;3.15;1.65;;;;;;;19.81;47.46;100997.59;5083403;28;20054;-63
2022/11/06 09:30:39;;;;;;;7.32;1.80;;;;;;;19.87;47.52;101004.81;5086661;28;20043;-64
2022/11/06 09:33:05;;;;;;;3.45;1.70;;;;;;;19.92;47.48;100991.06;5087107;28;20055;-64
2022/11/06 09:35:32;;;;;;;2.60;1.88;;;;;;;19.86;47.28;100976.75;5088252;28;20093;-64
2022/11/06 09:38:14;;;;;;;2.33;1.67;;;;;;;19.84;47.55;100991.97;5068415;28;20032;-64
2022/11/06 09:40:58;;;;;;;2.20;1.80;;;;;;;19.90;47.63;100982.50;5089034;28;20089;-63
2022/11/06 09:43:23;;;;;;;5.88;2.10;;;;;;;19.94;47.47;100970.59;5089283;28;20036;-63
2022/11/06 09:45:50;;;;;;;2.85;2.10;;;;;;;19.92;47.47;100964.66;5091040;28;20114;-64
2022/11/06 09:48:19;;;;;;;3.72;1.88;;;;;;;19.87;47.66;100962.53;5089825;28;20036;-64
2022/11/06 09:51:31;;;;;;;3.10;2.10;;;;;;;19.83;47.85;100966.53;5087498;28;20046;-64
2022/11/06 09:54:26;;;;;;;2.58;1.98;;;;;;;19.83;47.75;100961.25;5038557;28;20047;-64
2022/11/06 09:56:59;;;;;;;2.25;1.73;;;;;;;19.97;47.59;100950.91;5086921;28;20058;-64
2022/11/06 09:59:25;;;;;;;2.67;1.85;;;;;;;19.97;47.68;100961.50;5091445;28;20036;-64
2022/11/06 10:01:57;;;;;;;2.28;1.85;;;;;;;19.92;47.79;100956.72;5093071;28;20035;-64
2022/11/06 10:04:48;;;;;;;2.83;2.03;;;;;;;20.02;47.55;100967.88;5089907;28;20039;-64
2022/11/06 10:07:33;;;;;;;2.38;1.63;;;;;;;19.97;47.78;100964.13;5091014;28;20759;-64
2022/11/06 10:10:01;;;;;;;2.35;2.08;;;;;;;19.82;48.04;100951.69;5091348;28;20031;-64
2022/11/06 10:12:45;;;;;;;4.65;2.20;;;;;;;19.87;47.99;100957.25;5097232;28;20475;-64
2022/11/06 10:15:23;;;;;;;2.47;1.75;;;;;;;19.85;48.17;100964.53;5095343;28;20065;-64
2022/11/06 10:17:58;;;;;;;1.90;1.70;;;;;;;20.00;47.79;100972.53;5097065;28;20378;-64
2022/11/06 10:20:46;;;;;;;2.92;1.55;;;;;;;19.82;48.20;100951.69;5096362;28;20134;-64
2022/11/06 10:23:22;;;;;;;2.85;1.77;;;;;;;19.94;47.99;100964.50;5093090;28;20035;-64
2022/11/06 10:26:10;;;;;;;2.10;1.60;;;;;;;19.92;48.12;100964.66;5093948;28;20028;-64
2022/11/06 10:28:38;;;;;;;3.40;1.92;;;;;;;19.90;48.05;100962.19;5090777;28;20494;-63
2022/11/06 10:31:57;;;;;;;1.67;1.50;;;;;;;19.88;48.04;100968.66;5093450;28;20115;-63
2022/11/06 10:34:44;;;;;;;3.95;2.25;;;;;;;20.29;47.74;100963.00;5055569;28;20473;-73
2022/11/06 10:37:16;;;;;;;3.67;1.95;;;;;;;20.55;47.08;100960.81;5091357;28;20512;-70
2022/11/06 10:39:42;;;;;;;3.42;1.83;;;;;;;20.67;47.02;100963.84;5099726;28;20047;-74
2022/11/06 10:42:16;;;;;;;4.35;1.77;;;;;;;20.75;46.95;100966.41;5092653;28;20206;-72
2022/11/06 10:45:05;;;;;;;4.68;1.70;;;;;;;20.77;46.64;100962.56;5092108;28;20500;-71
2022/11/06 10:48:16;;;;;;;5.22;1.83;;;;;;;20.87;46.63;100959.66;5096117;28;20054;-73
2022/11/06 10:50:56;;;;;;;3.83;2.15;;;;;;;20.78;46.94;100956.25;5054582;28;20107;-74
2022/11/06 10:53:54;;;;;;;4.63;1.80;;;;;;;20.81;46.61;100947.97;5080963;28;20035;-74
2022/11/06 10:56:43;;;;;;;3.78;1.60;;;;;;;21.01;46.12;100952.72;5087022;28;20065;-72
2022/11/06 10:59:08;;;;;;;5.45;1.70;;;;;;;21.05;46.18;100940.75;5046065;28;20043;-72
2022/11/06 11:01:36;;;;;;;3.45;1.55;;;;;;;21.30;45.67;100938.63;5092816;28;20039;-72
2022/11/06 11:04:01;;;;;;;3.42;1.48;;;;;;;21.40;45.30;100931.19;5089586;28;20064;-74
2022/11/06 11:06:30;;;;;;;2.90;1.42;;;;;;;21.43;45.35;100920.22;5092121;28;20131;-72
2022/11/06 11:08:56;;;;;;;3.60;1.67;;;;;;;21.53;45.16;100920.72;5095301;28;20042;-74
2022/11/06 11:11:24;;;;;;;2.70;1.85;;;;;;;21.54;45.33;100909.13;5094296;28;20063;-75
2022/11/06 11:13:56;;;;;;;1.70;1.27;;;;;;;21.49;45.54;100889.50;5091076;28;20048;-69
2022/11/06 11:16:26;;;;;;;3.00;1.58;;;;;;;21.39;45.88;100903.06;5090688;28;20055;-71
2022/11/06 11:18:52;;;;;;;5.75;1.65;;;;;;;21.36;45.84;100890.19;5094798;28;20392;-72
2022/11/06 11:21:17;;;;;;;3.20;1.60;;;;;;;21.36;45.66;100890.19;5089781;28;20681;-70
2022/11/06 11:23:44;;;;;;;3.35;1.45;;;;;;;21.37;45.64;100876.78;5079207;28;20044;-71
2022/11/06 11:26:26;;;;;;;4.88;1.48;;;;;;;21.40;45.53;100873.75;5097648;28;20055;-71
2022/11/06 11:29:02;;;;;;;2.63;1.73;;;;;;;21.45;45.56;100875.81;5091220;28;20036;-69
2022/11/06 11:31:33;;;;;;;2.75;1.92;;;;;;;21.40;45.77;100872.94;5096135;28;20396;-70
2022/11/06 11:34:03;;;;;;;2.33;1.60;;;;;;;21.41;45.85;100859.50;5092484;28;20028;-70
2022/11/06 11:36:54;;;;;;;3.03;1.75;;;;;;;21.39;45.72;100868.63;5085317;28;20386;-71
2022/11/06 11:39:24;;;;;;;3.42;2.08;;;;;;;21.38;45.88;100864.34;5095372;28;20036;-70
2022/11/06 11:41:49;;;;;;;3.72;1.73;;;;;;;21.35;45.80;100860.22;5095625;28;20035;-70
2022/11/06 11:44:18;;;;;;;2.17;1.23;;;;;;;21.39;45.74;100863.34;5094875;28;20043;-73
2022/11/06 11:46:54;;;;;;;1.67;1.33;;;;;;;21.48;45.64;100856.88;5095163;28;20135;-73
2022/11/06 11:49:33;;;;;;;2.83;1.55;;;;;;;21.44;45.68;100849.50;5115523;27;20359;-73
2022/11/06 11:52:01;;;;;;;2.47;1.70;;;;;;;21.49;45.62;100842.63;5064111;28;20044;-70